Time;durP1;ratioP1;P1;durP2;ratioP2;P2;SDS_P1;SDS_P2;PMS_P1;PMS_P2;Temp;Humidity;BMP_temperature;BMP_pressure;BME280_temperature;BME280_humidity;BME280_pressure;Samples;Min_cycle;Max_cycle;Signal;HPM_P1;HPM_P2
2022/02/22 00:00:24;;;;;;;;;;;;;;;1.50;100.00;95486.06;1043284;28;20468;-70
2022/02/22 00:00:55;;;;;;;;;;;;;;;1.49;100.00;95486.28;1034955;28;19967;-70
2022/02/22 00:01:25;;;;;;;;;;;;;;;1.47;100.00;95483.91;1031106;28;19910;-71
2022/02/22 00:01:55;;;;;;;;;;;;;;;1.47;100.00;95491.66;1026854;28;19910;-70
2022/02/22 00:02:26;;;;;;;;;;;;;;;1.43;100.00;95490.50;1035032;28;20502;-69
2022/02/22 00:02:56;;;;;;;;;;;;;;;1.27;100.00;95462.59;1035158;28;19960;-71
2022/02/22 00:03:26;;;;;;;;;;;;;;;1.39;100.00;95484.16;1035133;28;19913;-70
2022/02/22 00:03:57;;;;;;;;;;;;;;;1.40;100.00;95491.69;1043210;28;20011;-71
2022/02/22 00:04:33;;;;;;;;;;;;;;;1.42;100.00;95496.69;1038825;28;20417;-70
2022/02/22 00:05:03;;;;;;;;;;;;;;;1.42;100.00;95492.28;1035135;28;19910;-70
2022/02/22 00:05:33;;;;;;;;;;;;;;;1.41;100.00;95490.72;1026980;28;19903;-71
2022/02/22 00:06:04;;;;;;;;;;;;;;;1.36;100.00;95493.13;1028619;28;19910;-69
2022/02/22 00:06:35;;;;;;;;;;;;;;;1.32;100.00;95504.13;1027476;28;19948;-70
2022/02/22 00:07:08;;;;;;;;;;;;;;;1.33;100.00;95508.28;1027231;28;19910;-70
2022/02/22 00:07:38;;;;;;;;;;;;;;;1.31;100.00;95499.94;1031124;28;19902;-70
2022/02/22 00:08:09;;;;;;;;;;;;;;;1.28;100.00;95498.56;1031371;28;19925;-69
2022/02/22 00:08:39;;;;;;;;;;;;;;;1.28;100.00;95498.56;1035194;28;19921;-70
2022/02/22 00:09:09;;;;;;;;;;;;;;;1.31;100.00;95499.94;1035326;28;19914;-69
2022/02/22 00:09:40;;;;;;;;;;;;;;;1.29;100.00;95504.53;1034374;28;19917;-70
2022/02/22 00:10:11;;;;;;;;;;;;;;;1.26;100.00;95508.31;1036802;28;19909;-70
2022/02/22 00:10:41;;;;;;;;;;;;;;;1.25;100.00;95503.38;1034908;28;19912;-69
2022/02/22 00:11:11;;;;;;;;;;;;;;;1.20;100.00;95498.03;1034975;28;19913;-70
2022/02/22 00:11:41;;;;;;;;;;;;;;;1.18;100.00;95501.63;1035344;28;20346;-70
2022/02/22 00:12:16;;;;;;;;;;;;;;;1.22;100.00;95507.16;1035049;28;19956;-70
2022/02/22 00:12:46;;;;;;;;;;;;;;;1.22;100.00;95504.56;1035451;28;19949;-70
2022/02/22 00:13:17;;;;;;;;;;;;;;;1.22;100.00;95506.38;1039361;28;19913;-70
2022/02/22 00:13:48;;;;;;;;;;;;;;;1.21;100.00;95507.34;1034956;28;20324;-70
2022/02/22 00:14:18;;;;;;;;;;;;;;;1.16;100.00;95503.59;1031361;28;20373;-71
2022/02/22 00:14:48;;;;;;;;;;;;;;;0.94;100.00;95473.97;1034983;28;19913;-70
2022/02/22 00:15:18;;;;;;;;;;;;;;;1.13;100.00;95504.03;1027161;28;19910;-70
2022/02/22 00:15:49;;;;;;;;;;;;;;;1.13;100.00;95504.03;1031303;28;19918;-70
2022/02/22 00:16:19;;;;;;;;;;;;;;;1.13;100.00;95508.41;1035382;28;19918;-70
2022/02/22 00:16:55;;;;;;;;;;;;;;;1.12;100.00;95507.63;1039041;28;19924;-70
2022/02/22 00:17:25;;;;;;;;;;;;;;;1.08;100.00;95511.63;1040179;28;19960;-70
2022/02/22 00:17:55;;;;;;;;;;;;;;;1.07;100.00;95511.81;1039276;28;19913;-70
2022/02/22 00:18:26;;;;;;;;;;;;;;;1.07;100.00;95507.44;1040278;28;19917;-70
2022/02/22 00:19:05;;;;;;;;;;;;;;;1.10;100.00;95509.59;1038633;28;19920;-70
2022/02/22 00:19:35;;;;;;;;;;;;;;;1.08;100.00;95516.78;1038254;28;19986;-70
2022/02/22 00:20:06;;;;;;;;;;;;;;;1.09;100.00;95507.25;1036339;28;19924;-70
2022/02/22 00:20:36;;;;;;;;;;;;;;;1.08;100.00;95513.41;1028431;28;19914;-70
2022/02/22 00:21:06;;;;;;;;;;;;;;;1.05;100.00;95512.03;1027066;28;19914;-70
2022/02/22 00:21:37;;;;;;;;;;;;;;;1.02;100.00;95517.63;1030975;28;20462;-70
2022/02/22 00:22:07;;;;;;;;;;;;;;;1.05;100.00;95514.63;1030848;28;20470;-70
2022/02/22 00:22:38;;;;;;;;;;;;;;;1.06;100.00;95513.63;1031041;28;20022;-69
2022/02/22 00:23:08;;;;;;;;;;;;;;;1.09;100.00;95515.00;1029395;28;20005;-68
2022/02/22 00:23:39;;;;;;;;;;;;;;;1.09;100.00;95518.38;1030864;28;19914;-70
2022/02/22 00:24:09;;;;;;;;;;;;;;;1.08;100.00;95521.97;1027259;28;19921;-69
2022/02/22 00:24:39;;;;;;;;;;;;;;;1.07;100.00;95516.97;1030970;28;19914;-69
2022/02/22 00:25:13;;;;;;;;;;;;;;;1.05;100.00;95517.19;1030964;28;20371;-69
2022/02/22 00:25:43;;;;;;;;;;;;;;;1.02;100.00;95517.63;1030746;28;19949;-70
2022/02/22 00:26:13;;;;;;;;;;;;;;;1.01;100.00;95516.03;1032557;28;19920;-70
2022/02/22 00:26:44;;;;;;;;;;;;;;;1.06;100.00;95513.63;1035491;28;19914;-70
2022/02/22 00:27:14;;;;;;;;;;;;;;;1.10;100.00;95519.94;1036809;28;19917;-70
2022/02/22 00:27:45;;;;;;;;;;;;;;;1.12;100.00;95514.56;1039005;28;19913;-70
2022/02/22 00:28:19;;;;;;;;;;;;;;;1.12;100.00;95512.78;1039113;28;19916;-70
2022/02/22 00:28:50;;;;;;;;;;;;;;;1.14;100.00;95512.56;1035977;28;19917;-69
2022/02/22 00:29:20;;;;;;;;;;;;;;;1.15;100.00;95517.53;1043096;28;19923;-69
2022/02/22 00:29:50;;;;;;;;;;;;;;;1.17;100.00;95518.13;1042292;28;19909;-70
2022/02/22 00:30:21;;;;;;;;;;;;;;;1.15;100.00;95514.94;1035013;28;20019;-70
2022/02/22 00:30:51;;;;;;;;;;;;;;;1.21;100.00;95520.28;1034929;28;19925;-70
2022/02/22 00:31:22;;;;;;;;;;;;;;;1.24;100.00;95517.28;1034508;28;20315;-71
2022/02/22 00:31:52;;;;;;;;;;;;;;;1.21;100.00;95515.09;1034772;28;19913;-70
2022/02/22 00:32:23;;;;;;;;;;;;;;;1.21;100.00;95515.09;1034614;28;19921;-69
2022/02/22 00:32:53;;;;;;;;;;;;;;;1.19;100.00;95517.91;1030826;28;19917;-70
2022/02/22 00:33:23;;;;;;;;;;;;;;;1.21;100.00;95515.91;1026887;28;20025;-71
2022/02/22 00:33:53;;;;;;;;;;;;;;;1.23;100.00;95513.13;1026471;28;19918;-70
2022/02/22 00:34:24;;;;;;;;;;;;;;;1.28;100.00;95518.47;1035081;28;20328;-70
2022/02/22 00:34:54;;;;;;;;;;;;;;;1.31;100.00;95523.22;1030972;28;19968;-70
2022/02/22 00:35:24;;;;;;;;;;;;;;;1.30;100.00;95524.19;1034810;28;19930;-70
2022/02/22 00:35:55;;;;;;;;;;;;;;;1.33;100.00;95527.16;1042410;28;19926;-70
2022/02/22 00:36:25;;;;;;;;;;;;;;;1.37;100.00;95528.31;1038951;28;19916;-69
2022/02/22 00:36:55;;;;;;;;;;;;;;;1.39;100.00;95525.53;1034866;28;19922;-70
2022/02/22 00:37:26;;;;;;;;;;;;;;;1.38;100.00;95523.97;1037012;28;19922;-70
2022/02/22 00:37:56;;;;;;;;;;;;;;;1.39;100.00;95522.94;1038866;28;19929;-70
2022/02/22 00:38:26;;;;;;;;;;;;;;;1.39;100.00;95528.13;1038997;28;20253;-70
2022/02/22 00:38:57;;;;;;;;;;;;;;;1.39;100.00;95533.28;1038889;28;19927;-70
2022/02/22 00:39:30;;;;;;;;;;;;;;;1.40;100.00;95538.22;1038358;28;19925;-67
2022/02/22 00:40:00;;;;;;;;;;;;;;;1.42;100.00;95530.28;1043280;28;20615;-70
2022/02/22 00:40:30;;;;;;;;;;;;;;;1.48;100.00;95532.03;1043187;28;19921;-69
2022/02/22 00:41:02;;;;;;;;;;;;;;;1.48;100.00;95528.66;1042856;28;19928;-70
2022/02/22 00:41:36;;;;;;;;;;;;;;;1.49;100.00;95533.59;1034819;28;19914;-69
2022/02/22 00:42:06;;;;;;;;;;;;;;;1.49;100.00;95533.59;1035426;28;20034;-70
2022/02/22 00:42:36;;;;;;;;;;;;;;;1.49;100.00;95531.03;1034689;28;19929;-70
2022/02/22 00:43:08;;;;;;;;;;;;;;;1.53;100.00;95523.63;1036307;28;20545;-70
2022/02/22 00:43:39;;;;;;;;;;;;;;;1.52;100.00;95528.03;1039054;28;20026;-70
2022/02/22 00:44:12;;;;;;;;;;;;;;;1.55;100.00;95526.81;1038798;28;20030;-69
2022/02/22 00:44:42;;;;;;;;;;;;;;;1.59;100.00;95533.13;1039190;28;19940;-69
2022/02/22 00:45:13;;;;;;;;;;;;;;;1.58;100.00;95529.75;1034361;28;19933;-69
2022/02/22 00:45:43;;;;;;;;;;;;;;;1.61;100.00;95534.53;1034961;28;19921;-70
2022/02/22 00:46:13;;;;;;;;;;;;;;;1.58;100.00;95518.63;1030759;28;19922;-69
2022/02/22 00:46:44;;;;;;;;;;;;;;;1.62;100.00;95530.91;1030802;28;19918;-70
2022/02/22 00:47:14;;;;;;;;;;;;;;;1.63;100.00;95522.16;1031173;28;19949;-69
2022/02/22 00:47:44;;;;;;;;;;;;;;;1.65;100.00;95521.97;1037919;28;19927;-70
2022/02/22 00:48:14;;;;;;;;;;;;;;;1.63;100.00;95526.53;1034660;28;19921;-71
2022/02/22 00:48:45;;;;;;;;;;;;;;;1.67;100.00;95529.50;1039295;28;19921;-71
2022/02/22 00:49:18;;;;;;;;;;;;;;;1.69;100.00;95530.09;1034669;28;19929;-69
2022/02/22 00:49:49;;;;;;;;;;;;;;;1.70;100.00;95529.06;1032337;28;19922;-70
2022/02/22 00:50:19;;;;;;;;;;;;;;;1.70;100.00;95531.66;1030588;28;20395;-70
2022/02/22 00:50:49;;;;;;;;;;;;;;;1.68;100.00;95531.06;1031239;28;20449;-69
2022/02/22 00:51:20;;;;;;;;;;;;;;;1.71;100.00;95535.81;1026963;28;19976;-70
2022/02/22 00:51:50;;;;;;;;;;;;;;;1.78;100.00;95539.16;1030820;28;20291;-69
2022/02/22 00:52:23;;;;;;;;;;;;;;;1.80;100.00;95539.72;1030582;28;19921;-70
2022/02/22 00:52:53;;;;;;;;;;;;;;;1.78;100.00;95536.59;1032062;28;19918;-70
2022/02/22 00:53:23;;;;;;;;;;;;;;;1.79;100.00;95540.75;1043035;28;19920;-71
2022/02/22 00:53:54;;;;;;;;;;;;;;;1.76;100.00;95536.78;1043590;28;19917;-70
2022/02/22 00:54:24;;;;;;;;;;;;;;;1.77;100.00;95540.94;1043042;28;20415;-70
2022/02/22 00:54:55;;;;;;;;;;;;;;;1.78;100.00;95539.94;1034494;28;19918;-71
2022/02/22 00:55:25;;;;;;;;;;;;;;;1.82;100.00;95542.91;1027035;28;19969;-70
2022/02/22 00:55:55;;;;;;;;;;;;;;;1.84;100.00;95546.06;1026752;28;20532;-69
2022/02/22 00:56:26;;;;;;;;;;;;;;;1.90;100.00;95542.63;1030752;28;20411;-70
2022/02/22 00:56:56;;;;;;;;;;;;;;;1.90;100.00;95550.38;1030799;28;19918;-69
2022/02/22 00:57:27;;;;;;;;;;;;;;;1.95;100.00;95553.13;1033435;28;19913;-70
2022/02/22 00:57:57;;;;;;;;;;;;;;;1.96;100.00;95539.19;1034654;28;19922;-69
2022/02/22 00:58:27;;;;;;;;;;;;;;;1.99;100.00;95549.13;1035103;28;19921;-69
2022/02/22 00:58:58;;;;;;;;;;;;;;;1.99;100.00;95543.94;1038850;28;20366;-69
2022/02/22 00:59:28;;;;;;;;;;;;;;;1.99;100.00;95543.94;1040506;28;20582;-69
2022/02/22 00:59:58;;;;;;;;;;;;;;;1.99;100.00;95550.91;1036650;28;19921;-70
2022/02/22 01:00:29;;;;;;;;;;;;;;;1.97;100.00;95547.75;1038886;28;20417;-68
2022/02/22 01:01:02;;;;;;;;;;;;;;;2.01;100.00;95552.28;1043028;28;19921;-69
2022/02/22 01:01:35;;;;;;;;;;;;;;;2.01;100.00;95549.72;1031392;28;19914;-69
2022/02/22 01:02:05;;;;;;;;;;;;;;;2.03;100.00;95549.47;1035126;28;20584;-69
2022/02/22 01:02:44;;;;;;;;;;;;;;;2.08;100.00;95547.84;1034866;28;19929;-69
2022/02/22 01:03:15;;;;;;;;;;;;;;;2.09;100.00;95546.84;1039041;28;19921;-68
2022/02/22 01:03:45;;;;;;;;;;;;;;;2.09;100.00;95544.25;1047794;28;19916;-69
2022/02/22 01:04:15;;;;;;;;;;;;;;;2.08;100.00;95547.84;1047405;28;20662;-69
2022/02/22 01:04:46;;;;;;;;;;;;;;;2.06;100.00;95549.84;1043064;28;19917;-70
2022/02/22 01:05:16;;;;;;;;;;;;;;;2.06;100.00;95549.06;1038697;28;19925;-69
2022/02/22 01:05:46;;;;;;;;;;;;;;;2.08;100.00;95541.88;1034851;28;19993;-70
2022/02/22 01:06:17;;;;;;;;;;;;;;;2.11;100.00;95546.59;1035239;28;20010;-69
2022/02/22 01:06:47;;;;;;;;;;;;;;;2.09;100.00;95546.84;1030574;28;19922;-69
2022/02/22 01:07:18;;;;;;;;;;;;;;;2.12;100.00;95549.00;1030681;28;19961;-69
2022/02/22 01:07:48;;;;;;;;;;;;;;;2.19;100.00;95548.16;1030932;28;20004;-68
2022/02/22 01:08:18;;;;;;;;;;;;;;;2.18;100.00;95546.53;1030934;28;19922;-68
2022/02/22 01:08:49;;;;;;;;;;;;;;;2.15;100.00;95552.97;1043035;28;19921;-69
2022/02/22 01:09:19;;;;;;;;;;;;;;;2.19;100.00;95542.97;1043207;28;19909;-68
2022/02/22 01:09:49;;;;;;;;;;;;;;;2.18;100.00;95549.13;1046936;28;20385;-69
2022/02/22 01:10:20;;;;;;;;;;;;;;;2.19;100.00;95542.97;1047640;28;19908;-69
2022/02/22 01:10:53;;;;;;;;;;;;;;;2.19;100.00;95545.56;1047283;28;19944;-69
2022/02/22 01:11:26;;;;;;;;;;;;;;;2.17;100.00;95539.78;1045821;28;19913;-68
2022/02/22 01:11:56;;;;;;;;;;;;;;;2.19;100.00;95545.56;1038876;28;19944;-69
2022/02/22 01:12:26;;;;;;;;;;;;;;;2.16;100.00;95549.34;1034868;28;19941;-69
2022/02/22 01:12:56;;;;;;;;;;;;;;;2.15;100.00;95546.97;1030627;28;20380;-69
2022/02/22 01:13:30;;;;;;;;;;;;;;;2.15;100.00;95546.97;1026892;28;20127;-69
2022/02/22 01:14:00;;;;;;;;;;;;;;;2.15;100.00;95542.59;1035237;28;19909;-70
2022/02/22 01:14:30;;;;;;;;;;;;;;;2.13;100.00;95544.59;1039756;28;19905;-69
2022/02/22 01:15:01;;;;;;;;;;;;;;;2.16;100.00;95541.59;1043525;28;20537;-70
2022/02/22 01:15:31;;;;;;;;;;;;;;;2.18;100.00;95536.19;1038622;28;19916;-68
2022/02/22 01:16:01;;;;;;;;;;;;;;;2.17;100.00;95547.56;1035144;28;20295;-69
2022/02/22 01:16:32;;;;;;;;;;;;;;;2.18;100.00;95536.19;1030919;28;20059;-68
2022/02/22 01:17:02;;;;;;;;;;;;;;;2.16;100.00;95541.59;1030582;28;19922;-69
2022/02/22 01:17:32;;;;;;;;;;;;;;;2.19;100.00;95543.75;1039033;28;19921;-70
2022/02/22 01:18:03;;;;;;;;;;;;;;;2.21;100.00;95535.75;1043136;28;20388;-69
2022/02/22 01:18:33;;;;;;;;;;;;;;;2.24;100.00;95530.16;1035055;28;19924;-69
2022/02/22 01:19:03;;;;;;;;;;;;;;;2.25;100.00;95537.72;1034840;28;19928;-69
2022/02/22 01:19:34;;;;;;;;;;;;;;;2.24;100.00;95538.72;1034133;28;19919;-69
2022/02/22 01:20:07;;;;;;;;;;;;;;;2.25;100.00;95542.13;1026741;28;20292;-69
2022/02/22 01:20:37;;;;;;;;;;;;;;;2.25;100.00;95536.94;1023059;28;20398;-69
2022/02/22 01:21:08;;;;;;;;;;;;;;;2.26;100.00;95528.16;1027146;28;19926;-68
2022/02/22 01:21:38;;;;;;;;;;;;;;;2.23;100.00;95533.75;1032084;28;19949;-69
2022/02/22 01:22:09;;;;;;;;;;;;;;;2.22;100.00;95537.38;1038775;28;19941;-68
2022/02/22 01:22:40;;;;;;;;;;;;;;;2.23;100.00;95541.53;1039245;28;19925;-69
2022/02/22 01:23:11;;;;;;;;;;;;;;;2.23;100.00;95554.47;1033225;28;20346;-69
2022/02/22 01:23:41;;;;;;;;;;;;;;;2.21;100.00;95546.91;1034537;28;19976;-69
2022/02/22 01:24:11;;;;;;;;;;;;;;;2.21;100.00;95551.28;1034930;28;19949;-69
2022/02/22 01:24:41;;;;;;;;;;;;;;;2.23;100.00;95551.88;1034945;28;19921;-70
2022/02/22 01:25:12;;;;;;;;;;;;;;;2.22;100.00;95555.47;1030602;28;19922;-68
2022/02/22 01:25:43;;;;;;;;;;;;;;;2.22;100.00;95542.53;1034625;28;19945;-70
2022/02/22 01:26:13;;;;;;;;;;;;;;;2.28;100.00;95552.81;1034679;28;19917;-69
2022/02/22 01:26:43;;;;;;;;;;;;;;;2.29;100.00;95554.41;1035274;28;19964;-69
2022/02/22 01:27:13;;;;;;;;;;;;;;;2.29;100.00;95569.16;1038543;28;19921;-69
2022/02/22 01:27:47;;;;;;;;;;;;;;;2.29;100.00;95559.59;1034639;28;19921;-69
2022/02/22 01:28:17;;;;;;;;;;;;;;;2.30;100.00;95555.97;1034875;28;19926;-68
2022/02/22 01:28:47;;;;;;;;;;;;;;;2.29;100.00;95554.41;1035527;28;19960;-69
2022/02/22 01:29:21;;;;;;;;;;;;;;;2.29;100.00;95551.03;1031176;28;19922;-69
2022/02/22 01:29:51;;;;;;;;;;;;;;;2.28;100.00;95554.59;1038144;28;19917;-69
2022/02/22 01:30:21;;;;;;;;;;;;;;;2.25;100.00;95555.84;1034565;28;20001;-69
2022/02/22 01:30:51;;;;;;;;;;;;;;;2.27;100.00;95560.78;1034839;28;19917;-68
2022/02/22 01:31:22;;;;;;;;;;;;;;;2.31;100.00;95556.75;1038898;28;20003;-70
2022/02/22 01:31:52;;;;;;;;;;;;;;;2.31;100.00;95551.59;1042822;28;19920;-69
2022/02/22 01:32:22;;;;;;;;;;;;;;;2.29;100.00;95553.63;1043104;28;22049;-69
2022/02/22 01:32:53;;;;;;;;;;;;;;;2.27;100.00;95566.75;1034555;28;19921;-69
2022/02/22 01:33:23;;;;;;;;;;;;;;;2.29;100.00;95559.59;1034724;28;19936;-69
2022/02/22 01:33:55;;;;;;;;;;;;;;;2.31;100.00;95560.16;1034839;28;19917;-69
2022/02/22 01:34:25;;;;;;;;;;;;;;;2.33;100.00;95562.53;1038877;28;19921;-69
2022/02/22 01:34:56;;;;;;;;;;;;;;;2.38;100.00;95572.22;1034975;28;20080;-68
2022/02/22 01:35:26;;;;;;;;;;;;;;;2.39;100.00;95558.31;1030802;28;19976;-69
2022/02/22 01:35:57;;;;;;;;;;;;;;;2.38;100.00;95557.47;1038618;28;19917;-69
2022/02/22 01:36:27;;;;;;;;;;;;;;;2.38;100.00;95564.47;1039190;28;19928;-68
2022/02/22 01:36:57;;;;;;;;;;;;;;;2.37;100.00;95571.44;1038694;28;19998;-69
2022/02/22 01:37:27;;;;;;;;;;;;;;;2.16;100.00;95538.22;1043033;28;19960;-70
2022/02/22 01:37:58;;;;;;;;;;;;;;;2.36;100.00;95562.09;1038995;28;19928;-69
2022/02/22 01:38:28;;;;;;;;;;;;;;;2.36;100.00;95564.69;1038769;28;20374;-68
2022/02/22 01:38:58;;;;;;;;;;;;;;;2.36;100.00;95567.28;1038850;28;19916;-69
2022/02/22 01:39:29;;;;;;;;;;;;;;;2.36;100.00;95569.88;1038227;28;19917;-67
2022/02/22 01:39:59;;;;;;;;;;;;;;;2.39;100.00;95564.25;1034734;28;19921;-69
2022/02/22 01:40:29;;;;;;;;;;;;;;;2.39;100.00;95574.63;1030611;28;19921;-68
2022/02/22 01:40:59;;;;;;;;;;;;;;;2.38;100.00;95570.44;1038557;28;19917;-69
2022/02/22 01:41:32;;;;;;;;;;;;;;;2.38;100.00;95588.56;1034835;28;20399;-68
2022/02/22 01:42:02;;;;;;;;;;;;;;;2.42;100.00;95576.78;1038992;28;20409;-68
2022/02/22 01:42:33;;;;;;;;;;;;;;;2.40;100.00;95571.00;1038442;28;19914;-69
2022/02/22 01:43:06;;;;;;;;;;;;;;;2.42;100.00;95574.19;1039456;28;19924;-69
2022/02/22 01:43:38;;;;;;;;;;;;;;;2.42;100.00;95576.00;1039540;28;19913;-70
2022/02/22 01:44:09;;;;;;;;;;;;;;;2.42;100.00;95579.38;1038749;28;19913;-68
2022/02/22 01:44:39;;;;;;;;;;;;;;;2.41;100.00;95582.94;1034919;28;19929;-69
2022/02/22 01:45:09;;;;;;;;;;;;;;;2.41;100.00;95575.19;1030484;28;20383;-69
2022/02/22 01:45:40;;;;;;;;;;;;;;;2.39;100.00;95584.97;1034275;28;19976;-68
2022/02/22 01:46:10;;;;;;;;;;;;;;;2.40;100.00;95581.38;1034980;28;19918;-69
2022/02/22 01:46:40;;;;;;;;;;;;;;;2.39;100.00;95579.00;1042536;28;20015;-68
2022/02/22 01:47:12;;;;;;;;;;;;;;;2.37;100.00;95581.81;1039138;28;19936;-69
2022/02/22 01:47:43;;;;;;;;;;;;;;;2.39;100.00;95589.38;1038733;28;19975;-69
2022/02/22 01:48:13;;;;;;;;;;;;;;;2.37;100.00;95589.56;1038792;28;19979;-69
2022/02/22 01:48:43;;;;;;;;;;;;;;;2.38;100.00;95585.97;1035237;28;19909;-68
2022/02/22 01:49:13;;;;;;;;;;;;;;;2.40;100.00;95581.38;1038724;28;19917;-69
2022/02/22 01:49:44;;;;;;;;;;;;;;;2.40;100.00;95591.72;1031730;28;19953;-68
2022/02/22 01:50:14;;;;;;;;;;;;;;;2.40;100.00;95590.94;1034577;28;19924;-70
2022/02/22 01:50:45;;;;;;;;;;;;;;;2.38;100.00;95593.72;1042705;28;19917;-69
2022/02/22 01:51:15;;;;;;;;;;;;;;;2.37;100.00;95602.50;1042933;28;19920;-68
2022/02/22 01:51:45;;;;;;;;;;;;;;;2.43;100.00;95590.50;1043139;28;20005;-69
2022/02/22 01:52:16;;;;;;;;;;;;;;;2.42;100.00;95594.13;1042996;28;19929;-69
2022/02/22 01:52:46;;;;;;;;;;;;;;;2.43;100.00;95588.72;1043187;28;19917;-68
2022/02/22 01:53:16;;;;;;;;;;;;;;;2.42;100.00;95597.50;1043454;28;19925;-69
2022/02/22 01:53:46;;;;;;;;;;;;;;;2.41;100.00;95595.09;1038613;28;20395;-66
2022/02/22 01:54:17;;;;;;;;;;;;;;;2.40;100.00;95589.13;1038745;28;20317;-68
2022/02/22 01:54:47;;;;;;;;;;;;;;;2.41;100.00;95602.88;1038766;28;19912;-69
2022/02/22 01:55:18;;;;;;;;;;;;;;;2.42;100.00;95597.50;1039558;28;20416;-67
2022/02/22 01:55:51;;;;;;;;;;;;;;;2.42;100.00;95605.25;1044073;28;19905;-69
2022/02/22 01:56:22;;;;;;;;;;;;;;;2.42;100.00;95600.09;1039648;28;19901;-69
2022/02/22 01:56:53;;;;;;;;;;;;;;;2.41;100.00;95608.84;1035271;28;19906;-68
2022/02/22 01:57:23;;;;;;;;;;;;;;;2.42;100.00;95607.06;1031233;28;19937;-70
2022/02/22 01:57:54;;;;;;;;;;;;;;;2.41;100.00;95608.84;1031435;28;20286;-69
2022/02/22 01:58:24;;;;;;;;;;;;;;;2.42;100.00;95610.44;1031827;28;20097;-69
2022/02/22 01:58:54;;;;;;;;;;;;;;;2.44;100.00;95617.97;1031558;28;19902;-70
2022/02/22 01:59:25;;;;;;;;;;;;;;;2.45;100.00;95609.19;1035454;28;19902;-69
2022/02/22 01:59:55;;;;;;;;;;;;;;;2.44;100.00;95612.81;1039561;28;19906;-70
2022/02/22 02:00:28;;;;;;;;;;;;;;;2.42;100.00;95613.03;1035650;28;20225;-70
2022/02/22 02:01:01;;;;;;;;;;;;;;;2.41;100.00;95613.22;1031813;28;20421;-70
2022/02/22 02:01:32;;;;;;;;;;;;;;;2.41;100.00;95614.00;1028821;28;19908;-69
2022/02/22 02:02:05;;;;;;;;;;;;;;;2.41;100.00;95614.00;1036558;28;19906;-70
2022/02/22 02:02:35;;;;;;;;;;;;;;;2.40;100.00;95622.81;1036495;28;19964;-71
2022/02/22 02:03:06;;;;;;;;;;;;;;;2.42;100.00;95614.84;1040135;28;19902;-71
2022/02/22 02:03:36;;;;;;;;;;;;;;;2.41;100.00;95619.19;1043727;28;19909;-70
2022/02/22 02:04:06;;;;;;;;;;;;;;;2.43;100.00;95612.00;1035521;28;20395;-70
2022/02/22 02:04:37;;;;;;;;;;;;;;;2.42;100.00;95615.63;1039587;28;19976;-69
2022/02/22 02:05:07;;;;;;;;;;;;;;;2.42;100.00;95613.03;1035799;28;19910;-69
2022/02/22 02:05:37;;;;;;;;;;;;;;;2.41;100.00;95608.06;1023325;29;19906;-70
2022/02/22 02:06:08;;;;;;;;;;;;;;;2.41;100.00;95614.00;1025014;28;19911;-68
2022/02/22 02:06:38;;;;;;;;;;;;;;;2.39;100.00;95607.50;1024460;28;19910;-69
2022/02/22 02:07:08;;;;;;;;;;;;;;;2.40;100.00;95614.25;1023362;29;19907;-69
2022/02/22 02:07:39;;;;;;;;;;;;;;;2.39;100.00;95610.88;1023707;29;19922;-71
2022/02/22 02:08:09;;;;;;;;;;;;;;;2.39;100.00;95610.88;1023482;28;19909;-70
2022/02/22 02:08:39;;;;;;;;;;;;;;;2.41;100.00;95619.19;1031454;28;19914;-71
2022/02/22 02:09:10;;;;;;;;;;;;;;;2.40;100.00;95616.84;1039858;28;19905;-69
2022/02/22 02:09:40;;;;;;;;;;;;;;;2.41;100.00;95602.88;1042960;28;19901;-69
2022/02/22 02:10:10;;;;;;;;;;;;;;;2.40;100.00;95606.47;1043563;28;19974;-71
2022/02/22 02:10:40;;;;;;;;;;;;;;;2.39;100.00;95610.88;1031691;28;19906;-70
2022/02/22 02:11:11;;;;;;;;;;;;;;;2.42;100.00;95604.47;1031499;28;19906;-70
2022/02/22 02:11:45;;;;;;;;;;;;;;;2.44;100.00;95600.66;1031319;28;19910;-70
2022/02/22 02:12:15;;;;;;;;;;;;;;;2.43;100.00;95598.28;1032360;28;19910;-71
2022/02/22 02:12:45;;;;;;;;;;;;;;;2.45;100.00;95606.59;1035661;28;19902;-71
2022/02/22 02:13:15;;;;;;;;;;;;;;;2.43;100.00;95611.22;1035909;28;19916;-71
2022/02/22 02:13:48;;;;;;;;;;;;;;;2.41;100.00;95606.25;1034791;28;19906;-71
2022/02/22 02:14:18;;;;;;;;;;;;;;;2.38;100.00;95609.25;1035887;28;19933;-69
2022/02/22 02:14:49;;;;;;;;;;;;;;;2.39;100.00;95610.88;1039864;28;19917;-70
2022/02/22 02:15:19;;;;;;;;;;;;;;;2.39;100.00;95616.06;1041684;28;19901;-71
2022/02/22 02:15:52;;;;;;;;;;;;;;;2.39;100.00;95615.25;1039583;28;19921;-70
2022/02/22 02:16:22;;;;;;;;;;;;;;;2.39;100.00;95613.47;1031358;28;19960;-71
2022/02/22 02:16:53;;;;;;;;;;;;;;;2.39;100.00;95610.88;1031777;28;19906;-71
2022/02/22 02:17:23;;;;;;;;;;;;;;;2.41;100.00;95618.41;1032042;28;20275;-71
2022/02/22 02:17:54;;;;;;;;;;;;;;;2.41;100.00;95611.44;1035548;28;20341;-70
2022/02/22 02:18:27;;;;;;;;;;;;;;;2.39;100.00;95604.91;1043870;28;19916;-70
2022/02/22 02:18:57;;;;;;;;;;;;;;;2.39;100.00;95607.50;1040423;28;19905;-69
2022/02/22 02:19:27;;;;;;;;;;;;;;;2.39;100.00;95617.84;1039030;28;19913;-70
2022/02/22 02:19:58;;;;;;;;;;;;;;;2.40;100.00;95616.84;1035662;28;19933;-70
2022/02/22 02:20:28;;;;;;;;;;;;;;;2.40;100.00;95622.81;1035390;28;19913;-70
2022/02/22 02:20:58;;;;;;;;;;;;;;;2.41;100.00;95619.19;1039637;28;20007;-69
2022/02/22 02:21:29;;;;;;;;;;;;;;;2.41;100.00;95619.19;1039863;28;20380;-70
2022/02/22 02:21:59;;;;;;;;;;;;;;;2.41;100.00;95623.59;1039419;28;19917;-69
2022/02/22 02:22:29;;;;;;;;;;;;;;;2.38;100.00;95619.63;1035477;28;20318;-70
2022/02/22 02:23:00;;;;;;;;;;;;;;;2.39;100.00;95621.22;1031013;28;19914;-69
2022/02/22 02:23:30;;;;;;;;;;;;;;;2.37;100.00;95620.63;1035372;28;20271;-70
2022/02/22 02:24:12;;;;;;;;;;;;;;;2.34;100.00;95613.28;1035301;28;19906;-70
2022/02/22 02:24:42;;;;;;;;;;;;;;;2.32;100.00;95620.50;1041187;28;19947;-70
2022/02/22 02:25:13;;;;;;;;;;;;;;;2.33;100.00;95617.69;1039667;28;19912;-70
2022/02/22 02:25:45;;;;;;;;;;;;;;;2.32;100.00;95626.47;1037382;28;19964;-71
2022/02/22 02:26:15;;;;;;;;;;;;;;;2.32;100.00;95623.09;1035439;28;19932;-70
2022/02/22 02:26:45;;;;;;;;;;;;;;;2.30;100.00;95632.84;1028112;28;19977;-70
2022/02/22 02:27:19;;;;;;;;;;;;;;;2.30;100.00;95617.31;1023606;28;20356;-70
2022/02/22 02:27:49;;;;;;;;;;;;;;;2.31;100.00;95627.47;1024224;28;19958;-70
2022/02/22 02:28:19;;;;;;;;;;;;;;;2.29;100.00;95623.50;1024524;28;19989;-70
2022/02/22 02:28:50;;;;;;;;;;;;;;;2.27;100.00;95628.09;1032334;28;19910;-70
2022/02/22 02:29:21;;;;;;;;;;;;;;;2.27;100.00;95618.53;1039685;28;19955;-70
2022/02/22 02:29:52;;;;;;;;;;;;;;;2.25;100.00;95625.75;1035335;28;19976;-70
2022/02/22 02:30:22;;;;;;;;;;;;;;;2.25;100.00;95630.13;1031295;28;20367;-70
2022/02/22 02:30:55;;;;;;;;;;;;;;;2.26;100.00;95621.34;1031714;28;20244;-71
2022/02/22 02:31:25;;;;;;;;;;;;;;;2.26;100.00;95629.91;1032155;28;19965;-69
2022/02/22 02:31:56;;;;;;;;;;;;;;;2.26;100.00;95621.34;1036417;28;19936;-70
2022/02/22 02:32:27;;;;;;;;;;;;;;;2.24;100.00;95608.59;1040176;28;19902;-70
2022/02/22 02:32:57;;;;;;;;;;;;;;;2.26;100.00;95621.34;1039606;28;19912;-70
2022/02/22 02:33:27;;;;;;;;;;;;;;;2.27;100.00;95615.94;1035639;28;19910;-69
2022/02/22 02:33:58;;;;;;;;;;;;;;;2.24;100.00;95616.38;1036217;28;19910;-70
2022/02/22 02:34:29;;;;;;;;;;;;;;;2.22;100.00;95625.38;1041733;28;20126;-70
2022/02/22 02:34:59;;;;;;;;;;;;;;;2.22;100.00;95617.59;1040284;28;19901;-71
2022/02/22 02:35:32;;;;;;;;;;;;;;;2.22;100.00;95609.84;1039901;28;20306;-70
2022/02/22 02:36:02;;;;;;;;;;;;;;;2.19;100.00;95607.69;1036061;28;19914;-70
2022/02/22 02:36:33;;;;;;;;;;;;;;;2.21;100.00;95619.38;1035957;28;19953;-70
2022/02/22 02:37:03;;;;;;;;;;;;;;;2.21;100.00;95613.41;1032613;28;20001;-71
2022/02/22 02:37:35;;;;;;;;;;;;;;;2.20;100.00;95629.97;1035945;28;19918;-70
2022/02/22 02:38:05;;;;;;;;;;;;;;;2.20;100.00;95624.78;1036137;28;19917;-70
2022/02/22 02:38:35;;;;;;;;;;;;;;;2.18;100.00;95622.41;1031649;28;19981;-71
2022/02/22 02:39:06;;;;;;;;;;;;;;;2.18;100.00;95629.38;1036152;28;19921;-71
2022/02/22 02:39:36;;;;;;;;;;;;;;;2.18;100.00;95629.38;1031351;28;19949;-70
2022/02/22 02:40:08;;;;;;;;;;;;;;;2.18;100.00;95621.59;1035765;28;20137;-69
2022/02/22 02:40:38;;;;;;;;;;;;;;;2.19;100.00;95625.78;1035225;28;19920;-69